Time;durP1;ratioP1;P1;durP2;ratioP2;P2;SDS_P1;SDS_P2;PMS_P1;PMS_P2;Temp;Humidity;BMP_temperature;BMP_pressure;BME280_temperature;BME280_humidity;BME280_pressure;Samples;Min_cycle;Max_cycle;Signal;HPM_P1;HPM_P2
2021/07/13 05:27:59;;;;;;;20.00;10.30;;;;;;;;;;4644134;26;20044;-70
2021/07/13 05:30:25;;;;;;;17.10;10.93;;;;;;;;;;5054711;28;20033;-69
2021/07/13 05:32:52;;;;;;;15.05;9.30;;;;;;;;;;5054332;28;20028;-66
2021/07/13 05:35:17;;;;;;;20.85;10.43;;;;;;;;;;5051530;28;20040;-67
2021/07/13 05:37:43;;;;;;;17.88;9.60;;;;;;;;;;5052958;28;20017;-69
2021/07/13 05:40:09;;;;;;;20.58;10.82;;;;;;;;;;5053503;28;20024;-68
2021/07/13 05:42:35;;;;;;;14.15;9.07;;;;;;;;;;5053326;28;20013;-68
2021/07/13 05:45:03;;;;;;;18.60;8.88;;;;;;;;;;5053997;28;20028;-68
2021/07/13 05:47:29;;;;;;;12.25;8.57;;;;;;;;;;5054022;28;20028;-67
2021/07/13 05:49:54;;;;;;;15.40;8.95;;;;;;;;;;5051752;28;20017;-66
2021/07/13 05:52:20;;;;;;;15.23;10.18;;;;;;;;;;5033877;28;20037;-65
2021/07/13 05:54:45;;;;;;;14.77;9.88;;;;;;;;;;5033173;28;20036;-65
2021/07/13 05:57:11;;;;;;;17.73;9.15;;;;;;;;;;5033508;28;20033;-65
2021/07/13 05:59:36;;;;;;;11.35;9.25;;;;;;;;;;5033403;28;20029;-64
2021/07/13 06:02:02;;;;;;;13.85;9.15;;;;;;;;;;5033022;28;20021;-67
2021/07/13 06:04:28;;;;;;;10.10;8.65;;;;;;;;;;5032941;28;20032;-68
2021/07/13 06:06:54;;;;;;;17.65;10.32;;;;;;;;;;5033064;28;20022;-68
2021/07/13 06:09:19;;;;;;;20.50;9.77;;;;;;;;;;5033011;28;20025;-66
2021/07/13 06:11:45;;;;;;;15.50;9.68;;;;;;;;;;5032763;28;20024;-67
2021/07/13 06:14:10;;;;;;;14.82;9.50;;;;;;;;;;5032510;28;20368;-66
2021/07/13 06:16:35;;;;;;;13.75;9.05;;;;;;;;;;5033225;28;20018;-69
2021/07/13 06:19:01;;;;;;;13.70;10.30;;;;;;;;;;5033662;28;20506;-67
2021/07/13 06:21:26;;;;;;;13.63;10.13;;;;;;;;;;5033126;28;20013;-68
2021/07/13 06:23:52;;;;;;;14.90;9.48;;;;;;;;;;5033420;28;20382;-69
2021/07/13 06:26:18;;;;;;;11.52;8.70;;;;;;;;;;5031060;28;20146;-69
2021/07/13 06:28:51;;;;;;;12.00;9.50;;;;;;;;;;5031684;28;20398;-69
2021/07/13 06:31:17;;;;;;;10.30;9.20;;;;;;;;;;5033090;28;20029;-68
2021/07/13 06:33:42;;;;;;;10.60;8.50;;;;;;;;;;5032856;28;20079;-67
2021/07/13 06:36:08;;;;;;;13.98;8.98;;;;;;;;;;5032800;28;20432;-66
2021/07/13 06:38:33;;;;;;;11.35;8.82;;;;;;;;;;5032841;28;20025;-67
2021/07/13 06:40:59;;;;;;;13.63;8.25;;;;;;;;;;5032609;28;20021;-68
2021/07/13 06:43:25;;;;;;;12.93;8.50;;;;;;;;;;5032903;28;20049;-67
2021/07/13 06:45:50;;;;;;;10.85;8.38;;;;;;;;;;5032904;28;20438;-71
2021/07/13 06:48:16;;;;;;;16.25;8.80;;;;;;;;;;5033061;28;20096;-67
2021/07/13 06:50:42;;;;;;;9.45;8.27;;;;;;;;;;5032672;28;20374;-67
2021/07/13 06:53:07;;;;;;;15.77;8.23;;;;;;;;;;5032619;28;20030;-67
2021/07/13 06:55:33;;;;;;;12.05;8.52;;;;;;;;;;5032673;28;20028;-65
2021/07/13 06:57:59;;;;;;;15.50;7.88;;;;;;;;;;5032811;28;20438;-64
2021/07/13 07:00:25;;;;;;;10.10;8.10;;;;;;;;;;5032893;28;20096;-64
2021/07/13 07:02:50;;;;;;;16.73;8.85;;;;;;;;;;5028925;28;20022;-65
2021/07/13 07:05:15;;;;;;;11.57;8.02;;;;;;;;;;5032092;28;20029;-66
2021/07/13 07:07:45;;;;;;;12.07;8.15;;;;;;;;;;5032303;28;20022;-70
2021/07/13 07:10:11;;;;;;;15.40;8.13;;;;;;;;;;5017329;28;20097;-69
2021/07/13 07:12:36;;;;;;;12.85;8.57;;;;;;;;;;5011247;28;20038;-68
2021/07/13 07:15:02;;;;;;;11.07;8.00;;;;;;;;;;5012417;28;20033;-67
2021/07/13 07:17:28;;;;;;;8.80;7.78;;;;;;;;;;5011824;28;20152;-69
2021/07/13 07:19:56;;;;;;;15.98;8.40;;;;;;;;;;5012096;28;20034;-67
2021/07/13 07:22:22;;;;;;;13.75;7.78;;;;;;;;;;5012271;28;20061;-67
2021/07/13 07:24:47;;;;;;;14.55;7.75;;;;;;;;;;5011225;28;20065;-66
2021/07/13 07:27:12;;;;;;;11.60;7.93;;;;;;;;;;5011968;28;20068;-68
2021/07/13 07:29:38;;;;;;;9.73;8.05;;;;;;;;;;5022912;28;20021;-68
2021/07/13 07:32:04;;;;;;;14.23;8.63;;;;;;;;;;5032827;28;20032;-70
2021/07/13 07:34:29;;;;;;;11.07;7.57;;;;;;;;;;5034771;28;20030;-68
2021/07/13 07:36:54;;;;;;;11.82;8.57;;;;;;;;;;5035999;28;20013;-74
2021/07/13 07:39:20;;;;;;;13.45;8.55;;;;;;;;;;5035721;28;20383;-69
2021/07/13 07:41:45;;;;;;;11.25;8.27;;;;;;;;;;5035196;28;20025;-71
2021/07/13 07:44:12;;;;;;;12.95;9.27;;;;;;;;;;5035941;28;20014;-69
2021/07/13 07:46:41;;;;;;;19.58;8.88;;;;;;;;;;5035873;28;20076;-73
2021/07/13 07:49:07;;;;;;;10.82;8.57;;;;;;;;;;5035459;28;20101;-66
2021/07/13 07:51:32;;;;;;;10.32;8.85;;;;;;;;;;5035399;28;20053;-70
2021/07/13 07:54:00;;;;;;;11.52;8.65;;;;;;;;;;5032234;28;20633;-70
2021/07/13 07:56:26;;;;;;;11.82;10.05;;;;;;;;;;5033838;28;20017;-69
2021/07/13 07:58:51;;;;;;;14.93;9.77;;;;;;;;;;5035672;28;20424;-69
2021/07/13 08:01:17;;;;;;;12.32;10.13;;;;;;;;;;5035213;28;20029;-71
2021/07/13 08:03:43;;;;;;;12.70;11.07;;;;;;;;;;5035110;28;20010;-69
2021/07/13 08:06:08;;;;;;;12.23;10.93;;;;;;;;;;5035573;28;20107;-69
2021/07/13 08:08:33;;;;;;;12.85;11.00;;;;;;;;;;5033693;28;20382;-68
2021/07/13 08:10:59;;;;;;;14.30;11.10;;;;;;;;;;5032924;28;20029;-68
2021/07/13 08:13:24;;;;;;;12.75;11.45;;;;;;;;;;5033698;28;20041;-68
2021/07/13 08:15:50;;;;;;;11.00;9.90;;;;;;;;;;5034208;28;20135;-68
2021/07/13 08:18:16;;;;;;;12.23;10.50;;;;;;;;;;5033870;28;20033;-66
2021/07/13 08:20:41;;;;;;;10.80;9.35;;;;;;;;;;5034485;28;20022;-66
2021/07/13 08:23:06;;;;;;;13.00;8.85;;;;;;;;;;5034024;28;20022;-66
2021/07/13 08:25:32;;;;;;;10.40;7.43;;;;;;;;;;5035132;28;20045;-66
2021/07/13 08:27:57;;;;;;;12.38;10.02;;;;;;;;;;5034343;28;20092;-67
2021/07/13 08:33:26;;;;;;;8.77;7.40;;;;;;;;;;5034386;28;20127;-66
2021/07/13 08:35:51;;;;;;;9.85;8.85;;;;;;;;;;5034741;28;20065;-66
2021/07/13 08:38:17;;;;;;;10.10;8.70;;;;;;;;;;5034592;28;20367;-65
2021/07/13 08:40:42;;;;;;;9.80;8.48;;;;;;;;;;5035060;28;20024;-66
2021/07/13 08:43:07;;;;;;;8.93;7.90;;;;;;;;;;5034710;28;20112;-65
2021/07/13 08:45:33;;;;;;;11.18;7.43;;;;;;;;;;5034673;28;20017;-65
2021/07/13 08:47:59;;;;;;;8.25;6.72;;;;;;;;;;5034669;28;20477;-65
2021/07/13 08:50:24;;;;;;;8.32;7.55;;;;;;;;;;5034731;28;20093;-66
2021/07/13 08:52:50;;;;;;;8.30;7.47;;;;;;;;;;5032976;28;20018;-66
2021/07/13 08:55:16;;;;;;;9.32;7.22;;;;;;;;;;5034510;28;20500;-65
2021/07/13 08:57:42;;;;;;;11.82;8.10;;;;;;;;;;5034081;28;20067;-65
2021/07/13 09:00:09;;;;;;;10.23;8.07;;;;;;;;;;5034635;28;20022;-65
2021/07/13 09:02:35;;;;;;;8.02;6.72;;;;;;;;;;5034456;28;20022;-65
2021/07/13 09:05:00;;;;;;;7.55;6.78;;;;;;;;;;5034775;28;20075;-65
2021/07/13 09:07:27;;;;;;;12.25;7.28;;;;;;;;;;5034044;28;20025;-65
2021/07/13 09:10:00;;;;;;;8.82;7.10;;;;;;;;;;5030945;28;20070;-67
2021/07/13 09:12:26;;;;;;;7.65;6.43;;;;;;;;;;5034081;28;20082;-67
2021/07/13 09:14:58;;;;;;;11.20;6.25;;;;;;;;;;5033036;28;20021;-68
2021/07/13 09:17:31;;;;;;;9.35;6.43;;;;;;;;;;5033655;28;20026;-69
2021/07/13 09:20:00;;;;;;;8.70;6.82;;;;;;;;;;5037031;28;20471;-66
2021/07/13 09:22:27;;;;;;;10.32;6.53;;;;;;;;;;5030864;28;20028;-69
2021/07/13 09:24:53;;;;;;;13.73;6.85;;;;;;;;;;5032503;28;20040;-68
2021/07/13 09:27:18;;;;;;;10.85;6.90;;;;;;;;;;5033540;28;20498;-68
2021/07/13 09:29:48;;;;;;;10.85;6.28;;;;;;;;;;5032687;28;20079;-68
2021/07/13 09:32:19;;;;;;;7.90;6.60;;;;;;;;;;5031324;28;20029;-68
2021/07/13 09:35:02;;;;;;;7.90;5.90;;;;;;;;;;5032694;28;20462;-68
2021/07/13 09:37:47;;;;;;;8.38;5.95;;;;;;;;;;5032806;28;20028;-67
2021/07/13 09:40:14;;;;;;;10.95;6.75;;;;;;;;;;5032520;28;20429;-68
2021/07/13 09:42:44;;;;;;;8.90;6.07;;;;;;;;;;5031333;28;20287;-67
2021/07/13 09:45:17;;;;;;;10.15;6.32;;;;;;;;;;5032815;28;20557;-68
2021/07/13 09:47:43;;;;;;;7.63;6.30;;;;;;;;;;5032422;28;20017;-68
2021/07/13 09:50:10;;;;;;;8.07;6.40;;;;;;;;;;5031266;28;20048;-69
2021/07/13 09:52:35;;;;;;;8.30;6.53;;;;;;;;;;5031149;28;20140;-68
2021/07/13 09:55:12;;;;;;;6.82;5.32;;;;;;;;;;5032349;28;20105;-68
2021/07/13 09:57:38;;;;;;;7.95;6.05;;;;;;;;;;5025734;28;20022;-69
2021/07/13 10:00:04;;;;;;;7.43;6.68;;;;;;;;;;5030869;28;20033;-69
2021/07/13 10:02:31;;;;;;;12.55;6.07;;;;;;;;;;5032356;28;20017;-69
2021/07/13 10:05:04;;;;;;;7.70;6.70;;;;;;;;;;5033330;28;20020;-66
2021/07/13 10:07:36;;;;;;;9.02;6.30;;;;;;;;;;5031603;28;20437;-66
2021/07/13 10:10:07;;;;;;;8.52;6.43;;;;;;;;;;5032811;28;20021;-66
2021/07/13 10:12:38;;;;;;;10.80;6.30;;;;;;;;;;5033186;28;20075;-67
2021/07/13 10:15:06;;;;;;;5.78;4.97;;;;;;;;;;5032979;28;20033;-67
2021/07/13 10:17:32;;;;;;;7.70;5.75;;;;;;;;;;5031237;28;20021;-66
2021/07/13 10:20:00;;;;;;;9.77;6.25;;;;;;;;;;5033178;28;20083;-66
2021/07/13 10:22:26;;;;;;;15.73;7.13;;;;;;;;;;5026212;28;20503;-65
2021/07/13 10:24:57;;;;;;;11.77;7.18;;;;;;;;;;5023735;28;20386;-68
2021/07/13 10:27:27;;;;;;;7.88;6.47;;;;;;;;;;5025395;28;20080;-65
2021/07/13 10:29:55;;;;;;;7.05;6.35;;;;;;;;;;5015921;28;20030;-67
2021/07/13 10:32:31;;;;;;;10.60;6.93;;;;;;;;;;5031442;28;20497;-67
2021/07/13 10:34:59;;;;;;;10.35;6.40;;;;;;;;;;5028474;28;20116;-67
2021/07/13 10:37:32;;;;;;;10.60;7.78;;;;;;;;;;5028492;28;20108;-66
2021/07/13 10:40:03;;;;;;;10.48;7.10;;;;;;;;;;5020087;28;20465;-65
2021/07/13 10:42:46;;;;;;;10.43;7.07;;;;;;;;;;5024591;28;20013;-66
2021/07/13 10:45:16;;;;;;;11.85;7.30;;;;;;;;;;5021570;28;20112;-67
2021/07/13 10:48:01;;;;;;;8.73;7.35;;;;;;;;;;5025171;28;20049;-68
2021/07/13 10:50:33;;;;;;;8.23;7.00;;;;;;;;;;5022401;28;20581;-67
2021/07/13 10:53:00;;;;;;;12.98;7.90;;;;;;;;;;5019475;28;20044;-68
2021/07/13 10:55:38;;;;;;;9.43;7.07;;;;;;;;;;5023298;28;20080;-67
2021/07/13 10:58:17;;;;;;;15.10;8.07;;;;;;;;;;5028127;28;20025;-69
2021/07/13 11:00:59;;;;;;;10.50;7.90;;;;;;;;;;5027351;28;20061;-68
2021/07/13 11:03:40;;;;;;;12.10;8.45;;;;;;;;;;5019850;28;20036;-68
2021/07/13 11:06:07;;;;;;;15.20;8.90;;;;;;;;;;5023870;28;20124;-68
2021/07/13 11:08:49;;;;;;;18.63;8.90;;;;;;;;;;5014669;28;20053;-67
2021/07/13 11:11:21;;;;;;;9.30;7.90;;;;;;;;;;5027825;28;20494;-68
2021/07/13 11:13:54;;;;;;;13.38;8.95;;;;;;;;;;5020350;28;20036;-68
2021/07/13 11:16:23;;;;;;;13.27;8.73;;;;;;;;;;5026535;28;20025;-69
2021/07/13 11:18:49;;;;;;;9.02;7.80;;;;;;;;;;5022956;28;20104;-69
2021/07/13 11:21:31;;;;;;;12.90;8.55;;;;;;;;;;5023345;28;20125;-67
2021/07/13 11:24:06;;;;;;;13.25;8.20;;;;;;;;;;5017288;28;20026;-68
2021/07/13 11:26:32;;;;;;;13.13;8.05;;;;;;;;;;5024675;28;20050;-68
2021/07/13 11:28:59;;;;;;;9.88;8.15;;;;;;;;;;5010744;28;20033;-68
2021/07/13 11:31:29;;;;;;;12.02;8.05;;;;;;;;;;5014381;28;20022;-68
2021/07/13 11:34:01;;;;;;;11.02;7.95;;;;;;;;;;5022332;28;20051;-67
2021/07/13 11:36:33;;;;;;;16.35;8.68;;;;;;;;;;5017839;28;20026;-67
2021/07/13 11:39:01;;;;;;;8.82;7.75;;;;;;;;;;5014265;28;20541;-68
2021/07/13 11:41:26;;;;;;;13.38;8.55;;;;;;;;;;5014359;28;20026;-69
2021/07/13 11:43:54;;;;;;;11.20;8.63;;;;;;;;;;5025501;28;20031;-69
2021/07/13 11:46:21;;;;;;;12.85;7.85;;;;;;;;;;5029181;28;20009;-65
2021/07/13 11:48:54;;;;;;;13.70;8.13;;;;;;;;;;5024210;28;20053;-72
2021/07/13 11:51:24;;;;;;;15.02;7.38;;;;;;;;;;5019363;28;20024;-67
2021/07/13 11:54:04;;;;;;;10.35;7.78;;;;;;;;;;5017124;28;20021;-66
2021/07/13 11:56:30;;;;;;;12.10;8.32;;;;;;;;;;5019775;28;20454;-65
2021/07/13 11:58:56;;;;;;;9.48;8.10;;;;;;;;;;5019977;28;20025;-68
2021/07/13 12:01:23;;;;;;;9.70;7.90;;;;;;;;;;5018308;28;20048;-68
2021/07/13 12:03:52;;;;;;;15.37;7.50;;;;;;;;;;5028719;28;20079;-67
2021/07/13 12:06:18;;;;;;;12.27;7.78;;;;;;;;;;5025304;28;20441;-68
2021/07/13 12:08:50;;;;;;;11.38;8.27;;;;;;;;;;5021144;28;20014;-70
2021/07/13 12:11:20;;;;;;;9.45;7.82;;;;;;;;;;5018427;28;20022;-67
2021/07/13 12:13:46;;;;;;;11.73;8.60;;;;;;;;;;5021166;28;20116;-66
2021/07/13 12:16:16;;;;;;;10.35;7.70;;;;;;;;;;5023616;28;20100;-66
2021/07/13 12:18:42;;;;;;;11.45;7.95;;;;;;;;;;5029479;28;20018;-65
2021/07/13 12:21:08;;;;;;;10.00;8.18;;;;;;;;;;5025680;28;20075;-67
2021/07/13 12:23:33;;;;;;;10.43;8.43;;;;;;;;;;5031647;28;20470;-67
2021/07/13 12:26:17;;;;;;;11.45;8.40;;;;;;;;;;5034793;28;20026;-68
2021/07/13 12:29:01;;;;;;;8.23;7.35;;;;;;;;;;4992251;28;20145;-68
2021/07/13 12:31:26;;;;;;;12.75;8.25;;;;;;;;;;4994545;28;20022;-68
2021/07/13 12:33:52;;;;;;;14.40;9.40;;;;;;;;;;4995213;28;20085;-67
2021/07/13 12:36:25;;;;;;;12.27;9.05;;;;;;;;;;5009990;28;20472;-66
2021/07/13 12:38:50;;;;;;;9.40;8.40;;;;;;;;;;4995357;28;20044;-66
2021/07/13 12:41:18;;;;;;;10.48;8.48;;;;;;;;;;4994908;28;20014;-66
2021/07/13 12:43:44;;;;;;;8.80;7.90;;;;;;;;;;4994561;28;20435;-67
2021/07/13 12:46:22;;;;;;;12.02;8.63;;;;;;;;;;4994888;28;20105;-66
2021/07/13 12:48:48;;;;;;;10.88;9.00;;;;;;;;;;4995031;28;20018;-66
2021/07/13 12:51:21;;;;;;;11.90;9.77;;;;;;;;;;4993978;28;20502;-66
2021/07/13 12:53:46;;;;;;;13.05;9.13;;;;;;;;;;4993463;28;20038;-65
2021/07/13 12:56:11;;;;;;;9.50;8.50;;;;;;;;;;4995253;28;20014;-66
2021/07/13 12:58:37;;;;;;;10.82;9.75;;;;;;;;;;4994930;28;20022;-66
2021/07/13 13:01:10;;;;;;;12.43;9.43;;;;;;;;;;4995087;28;20022;-66
2021/07/13 13:03:37;;;;;;;13.25;9.20;;;;;;;;;;4993977;28;20492;-66
2021/07/13 13:06:03;;;;;;;14.93;8.80;;;;;;;;;;4994232;28;20030;-66
2021/07/13 13:08:34;;;;;;;11.68;9.02;;;;;;;;;;4995214;28;20010;-66
2021/07/13 13:11:00;;;;;;;13.35;8.75;;;;;;;;;;5012715;28;20028;-67
2021/07/13 13:13:29;;;;;;;14.15;8.95;;;;;;;;;;4998046;28;20538;-66
2021/07/13 13:15:55;;;;;;;9.90;8.52;;;;;;;;;;5010082;28;20431;-66
2021/07/13 13:18:21;;;;;;;11.45;9.02;;;;;;;;;;4995164;28;20018;-67
2021/07/13 13:20:46;;;;;;;12.68;8.77;;;;;;;;;;4994011;28;20026;-66
2021/07/13 13:23:13;;;;;;;16.45;8.68;;;;;;;;;;4994662;28;20121;-66
2021/07/13 13:25:39;;;;;;;10.98;8.30;;;;;;;;;;4994750;28;20018;-65
2021/07/13 13:28:06;;;;;;;12.35;8.77;;;;;;;;;;4993801;28;20096;-66
2021/07/13 13:30:31;;;;;;;15.40;8.82;;;;;;;;;;4993272;28;20066;-66
2021/07/13 13:32:57;;;;;;;12.55;8.45;;;;;;;;;;4994099;28;20060;-68
2021/07/13 13:35:30;;;;;;;9.80;8.02;;;;;;;;;;4993665;28;20053;-67
2021/07/13 13:38:07;;;;;;;12.35;8.15;;;;;;;;;;4994730;28;20615;-67
2021/07/13 13:40:34;;;;;;;11.57;8.85;;;;;;;;;;4994435;28;20113;-67
2021/07/13 13:42:59;;;;;;;13.80;8.63;;;;;;;;;;4993264;28;20030;-66
2021/07/13 13:45:25;;;;;;;16.42;8.38;;;;;;;;;;4994210;28;20555;-68
2021/07/13 13:47:50;;;;;;;10.02;7.63;;;;;;;;;;4994157;28;20388;-67
2021/07/13 13:50:16;;;;;;;13.32;7.88;;;;;;;;;;4993435;28;20471;-74
2021/07/13 13:52:41;;;;;;;17.70;8.35;;;;;;;;;;4994220;28;20076;-73
2021/07/13 13:55:07;;;;;;;9.60;7.50;;;;;;;;;;4993369;28;20117;-73
2021/07/13 13:57:33;;;;;;;8.88;7.57;;;;;;;;;;4993370;28;20014;-73
2021/07/13 13:59:59;;;;;;;9.10;7.65;;;;;;;;;;4992826;28;20033;-73
2021/07/13 14:02:24;;;;;;;16.00;7.40;;;;;;;;;;4993437;28;20022;-73
2021/07/13 14:04:50;;;;;;;8.68;7.75;;;;;;;;;;4993069;28;20041;-73
2021/07/13 14:07:15;;;;;;;11.88;7.70;;;;;;;;;;4993773;28;20105;-73
2021/07/13 14:09:41;;;;;;;14.40;7.78;;;;;;;;;;4993838;28;20033;-73
2021/07/13 14:12:09;;;;;;;17.30;8.15;;;;;;;;;;4993079;28;20018;-74
2021/07/13 14:14:34;;;;;;;;;;;;;;;;;;4987663;28;20037;-75
2021/07/13 14:17:00;;;;;;;11.47;8.20;;;;;;;;;;4980859;28;19914;-72
2021/07/13 14:19:26;;;;;;;13.18;8.00;;;;;;;;;;4977215;28;20042;-76
2021/07/13 14:21:51;;;;;;;11.18;7.13;;;;;;;;;;4985026;28;20027;-67
2021/07/13 14:24:17;;;;;;;9.07;6.93;;;;;;;;;;4987849;28;20022;-67
2021/07/13 14:26:43;;;;;;;15.30;7.95;;;;;;;;;;4988977;28;20050;-66
2021/07/13 14:29:09;;;;;;;10.95;7.50;;;;;;;;;;4985848;28;20015;-66
2021/07/13 14:31:34;;;;;;;15.65;8.57;;;;;;;;;;4974091;28;20081;-67
2021/07/13 14:34:00;;;;;;;12.52;7.35;;;;;;;;;;4974513;28;20472;-67
2021/07/13 14:36:26;;;;;;;12.80;7.40;;;;;;;;;;4974789;28;20433;-67
2021/07/13 14:38:52;;;;;;;11.82;7.53;;;;;;;;;;4974643;28;20054;-67
2021/07/13 14:41:20;;;;;;;10.68;7.93;;;;;;;;;;4974128;28;20387;-67
2021/07/13 14:43:46;;;;;;;12.63;7.93;;;;;;;;;;4974420;28;20030;-67
2021/07/13 14:46:11;;;;;;;15.15;7.70;;;;;;;;;;4974521;28;20649;-67
2021/07/13 14:48:37;;;;;;;12.90;8.40;;;;;;;;;;4974432;28;20033;-67
2021/07/13 14:51:02;;;;;;;12.05;8.00;;;;;;;;;;4974310;28;20026;-67
2021/07/13 14:53:29;;;;;;;9.60;7.63;;;;;;;;;;4974112;28;20034;-67
2021/07/13 14:55:54;;;;;;;16.80;8.05;;;;;;;;;;4974076;28;20163;-67
2021/07/13 14:58:21;;;;;;;13.07;7.75;;;;;;;;;;4974616;28;20243;-67
2021/07/13 15:00:48;;;;;;;11.95;8.02;;;;;;;;;;4974241;28;20093;-67
2021/07/13 15:03:15;;;;;;;14.77;8.02;;;;;;;;;;4973982;28;20018;-67
2021/07/13 15:05:41;;;;;;;14.55;7.82;;;;;;;;;;4974315;28;20014;-67
2021/07/13 15:08:07;;;;;;;15.85;8.65;;;;;;;;;;4974276;28;20030;-67
2021/07/13 15:10:32;;;;;;;17.15;9.23;;;;;;;;;;4974190;28;20023;-67
2021/07/13 15:12:58;;;;;;;14.05;8.10;;;;;;;;;;4973961;28;20030;-67
2021/07/13 15:15:25;;;;;;;13.20;7.85;;;;;;;;;;4973852;28;20029;-67
2021/07/13 15:17:52;;;;;;;19.60;7.55;;;;;;;;;;4974232;28;20439;-67
2021/07/13 15:20:21;;;;;;;17.02;7.65;;;;;;;;;;4974009;28;20070;-67
2021/07/13 15:22:47;;;;;;;11.55;7.53;;;;;;;;;;4974051;28;20023;-67
2021/07/13 15:25:12;;;;;;;13.82;7.60;;;;;;;;;;4977688;28;20419;-66
2021/07/13 15:27:39;;;;;;;10.45;7.65;;;;;;;;;;4974052;28;20046;-66
2021/07/13 15:30:05;;;;;;;11.85;7.40;;;;;;;;;;4974172;28;20031;-66
2021/07/13 15:32:30;;;;;;;11.18;7.88;;;;;;;;;;4973831;28;20050;-67
2021/07/13 15:34:56;;;;;;;12.90;7.35;;;;;;;;;;4974055;28;20034;-67
2021/07/13 15:37:22;;;;;;;11.32;7.10;;;;;;;;;;4973686;28;20502;-67
2021/07/13 15:39:48;;;;;;;9.25;6.70;;;;;;;;;;4973985;28;20030;-67
2021/07/13 15:42:14;;;;;;;16.25;7.32;;;;;;;;;;4973822;28;20019;-67
2021/07/13 15:44:40;;;;;;;8.88;7.57;;;;;;;;;;4974143;28;20027;-67
2021/07/13 15:47:05;;;;;;;15.85;7.03;;;;;;;;;;4973844;28;20077;-67
2021/07/13 15:49:32;;;;;;;10.93;6.75;;;;;;;;;;4973648;28;20432;-67
2021/07/13 15:51:58;;;;;;;11.45;6.97;;;;;;;;;;4973858;28;20027;-67
2021/07/13 15:54:26;;;;;;;8.57;7.18;;;;;;;;;;4976587;28;20490;-66
2021/07/13 15:56:53;;;;;;;10.00;7.63;;;;;;;;;;4977562;28;20439;-67
2021/07/13 15:59:18;;;;;;;9.02;7.03;;;;;;;;;;4977435;28;20081;-66
2021/07/13 16:01:45;;;;;;;13.00;6.97;;;;;;;;;;4977765;28;20113;-67
2021/07/13 16:04:11;;;;;;;9.07;6.82;;;;;;;;;;4977396;28;20023;-67
2021/07/13 16:06:37;;;;;;;12.05;6.72;;;;;;;;;;4977414;28;20131;-67
2021/07/13 16:09:03;;;;;;;11.30;6.50;;;;;;;;;;4977509;28;20109;-67
2021/07/13 16:11:29;;;;;;;15.32;6.47;;;;;;;;;;4977419;28;20101;-67
2021/07/13 16:13:54;;;;;;;13.73;6.70;;;;;;;;;;4977408;28;20564;-67
2021/07/13 16:16:20;;;;;;;8.13;6.60;;;;;;;;;;4977574;28;20412;-67
2021/07/13 16:18:47;;;;;;;12.00;6.85;;;;;;;;;;4977363;28;20027;-67
2021/07/13 16:21:13;;;;;;;12.98;6.50;;;;;;;;;;4976888;28;20019;-67
2021/07/13 16:23:38;;;;;;;14.60;6.38;;;;;;;;;;4976957;28;20046;-67
2021/07/13 16:26:05;;;;;;;18.27;7.10;;;;;;;;;;4977227;28;20065;-66
2021/07/13 16:28:31;;;;;;;10.55;6.10;;;;;;;;;;4977286;28;20050;-66
2021/07/13 16:30:57;;;;;;;10.13;6.03;;;;;;;;;;4976921;28;20015;-66
2021/07/13 16:33:22;;;;;;;13.07;6.55;;;;;;;;;;4977073;28;20026;-66
2021/07/13 16:35:48;;;;;;;12.02;6.00;;;;;;;;;;4977157;28;20557;-66
2021/07/13 16:38:14;;;;;;;13.40;5.80;;;;;;;;;;4976634;28;20057;-67
2021/07/13 16:40:40;;;;;;;12.20;6.18;;;;;;;;;;4977026;28;20018;-67
2021/07/13 16:43:07;;;;;;;14.75;6.85;;;;;;;;;;4977106;28;20038;-67
2021/07/13 16:45:32;;;;;;;11.63;6.05;;;;;;;;;;4976935;28;20114;-67
2021/07/13 16:47:59;;;;;;;13.30;6.25;;;;;;;;;;4976950;28;20022;-67
2021/07/13 16:50:25;;;;;;;15.40;6.63;;;;;;;;;;4976424;28;20475;-67
2021/07/13 16:52:51;;;;;;;13.32;6.10;;;;;;;;;;4976404;28;20022;-67
2021/07/13 16:55:17;;;;;;;8.40;5.10;;;;;;;;;;4976571;28;20078;-67
2021/07/13 16:57:43;;;;;;;10.10;5.68;;;;;;;;;;4976487;28;20383;-67
2021/07/13 17:00:09;;;;;;;20.35;6.18;;;;;;;;;;4976452;28;20011;-67
2021/07/13 17:02:36;;;;;;;19.13;6.80;;;;;;;;;;4976459;28;20030;-68
2021/07/13 17:05:02;;;;;;;12.68;6.20;;;;;;;;;;4975185;28;20031;-67
2021/07/13 17:07:29;;;;;;;7.55;5.88;;;;;;;;;;4976167;28;20019;-67
2021/07/13 17:09:54;;;;;;;38.45;7.63;;;;;;;;;;4976424;28;20015;-67
2021/07/13 17:12:20;;;;;;;9.52;5.13;;;;;;;;;;4976877;28;20034;-67
2021/07/13 17:14:45;;;;;;;11.77;5.22;;;;;;;;;;4976320;28;20396;-67
2021/07/13 17:17:13;;;;;;;13.88;5.57;;;;;;;;;;4976076;28;20022;-67
2021/07/13 17:19:39;;;;;;;14.55;5.50;;;;;;;;;;4976114;28;20073;-67
2021/07/13 17:22:07;;;;;;;12.32;5.80;;;;;;;;;;4975948;28;20023;-68
2021/07/13 17:24:33;;;;;;;11.98;5.13;;;;;;;;;;4976488;28;20046;-67
2021/07/13 17:26:59;;;;;;;10.63;5.50;;;;;;;;;;4975899;28;20078;-67
2021/07/13 17:29:25;;;;;;;12.13;5.97;;;;;;;;;;4976159;28;20026;-67
2021/07/13 17:31:51;;;;;;;10.82;6.35;;;;;;;;;;4975953;28;20089;-67
2021/07/13 17:34:17;;;;;;;13.75;6.25;;;;;;;;;;4975788;28;20031;-68
2021/07/13 17:36:43;;;;;;;13.00;5.82;;;;;;;;;;4975877;28;20137;-67
2021/07/13 17:39:09;;;;;;;9.45;5.65;;;;;;;;;;4976006;28;20535;-68
2021/07/13 17:41:35;;;;;;;8.13;5.85;;;;;;;;;;4975515;28;20042;-67
2021/07/13 17:44:01;;;;;;;12.77;5.45;;;;;;;;;;4976000;28;20019;-68
2021/07/13 17:46:27;;;;;;;13.65;5.85;;;;;;;;;;4976063;28;20062;-67
2021/07/13 17:48:52;;;;;;;14.65;6.43;;;;;;;;;;4975532;28;20404;-67
2021/07/13 17:51:18;;;;;;;10.70;6.32;;;;;;;;;;4977888;28;20034;-67
2021/07/13 17:53:44;;;;;;;12.82;6.57;;;;;;;;;;4977052;28;20053;-67
2021/07/13 17:56:12;;;;;;;9.07;6.35;;;;;;;;;;4975386;28;20015;-67
2021/07/13 17:58:37;;;;;;;11.88;6.55;;;;;;;;;;4975673;28;20136;-67
2021/07/13 18:01:03;;;;;;;19.15;6.72;;;;;;;;;;4975348;28;20038;-67
2021/07/13 18:03:29;;;;;;;10.50;7.05;;;;;;;;;;4975313;28;20018;-67
2021/07/13 18:05:55;;;;;;;15.15;6.65;;;;;;;;;;4975104;28;20085;-67
2021/07/13 18:08:20;;;;;;;18.33;7.38;;;;;;;;;;4975436;28;20042;-67
2021/07/13 18:10:46;;;;;;;12.45;6.93;;;;;;;;;;4975475;28;20519;-67
2021/07/13 18:13:12;;;;;;;16.80;6.13;;;;;;;;;;4975025;28;20035;-67
2021/07/13 18:15:40;;;;;;;26.70;7.22;;;;;;;;;;4974608;28;20037;-67
2021/07/13 18:18:06;;;;;;;13.02;6.68;;;;;;;;;;4975214;28;20456;-67
2021/07/13 18:20:32;;;;;;;15.15;6.70;;;;;;;;;;4975262;28;20038;-67
2021/07/13 18:22:58;;;;;;;19.33;7.13;;;;;;;;;;4974900;28;20057;-67
2021/07/13 18:25:24;;;;;;;20.92;7.53;;;;;;;;;;4974954;28;20054;-67
2021/07/13 18:27:50;;;;;;;18.50;8.00;;;;;;;;;;4974643;28;20046;-67
2021/07/13 18:30:16;;;;;;;20.73;7.50;;;;;;;;;;4974948;28;20105;-67
2021/07/13 18:32:42;;;;;;;23.10;7.00;;;;;;;;;;4975030;28;20037;-67
2021/07/13 18:35:08;;;;;;;20.13;7.10;;;;;;;;;;4974750;28;20111;-67
2021/07/13 18:37:34;;;;;;;15.73;6.78;;;;;;;;;;4974449;28;20424;-67
2021/07/13 18:40:01;;;;;;;15.63;6.47;;;;;;;;;;4974944;28;20034;-67
2021/07/13 18:42:27;;;;;;;15.18;7.20;;;;;;;;;;4974699;28;20053;-67
2021/07/13 18:44:52;;;;;;;13.70;6.57;;;;;;;;;;4974867;28;20038;-67
2021/07/13 18:47:19;;;;;;;16.67;7.22;;;;;;;;;;4974613;28;20023;-67
2021/07/13 18:49:46;;;;;;;13.40;6.70;;;;;;;;;;4974403;28;20035;-67
2021/07/13 18:52:11;;;;;;;18.60;7.00;;;;;;;;;;4974376;28;20535;-67
2021/07/13 18:54:37;;;;;;;14.90;6.93;;;;;;;;;;4974572;28;20118;-67
2021/07/13 18:57:03;;;;;;;17.65;7.55;;;;;;;;;;4974369;28;20015;-67
2021/07/13 18:59:30;;;;;;;14.65;7.13;;;;;;;;;;4974211;28;20025;-67
2021/07/13 19:01:57;;;;;;;24.98;7.82;;;;;;;;;;4974582;28;20015;-67
2021/07/13 19:04:24;;;;;;;18.70;7.47;;;;;;;;;;4974627;28;20050;-67
2021/07/13 19:06:51;;;;;;;;;;;;;;;;;;4974746;28;20082;-67
2021/07/13 19:09:18;;;;;;;16.40;7.32;;;;;;;;;;4974325;28;20359;-67
2021/07/13 19:11:43;;;;;;;17.13;7.90;;;;;;;;;;4974178;28;20102;-67
2021/07/13 19:14:09;;;;;;;18.48;7.50;;;;;;;;;;4974155;28;20115;-67
2021/07/13 19:16:35;;;;;;;25.08;7.30;;;;;;;;;;4974314;28;20019;-67
2021/07/13 19:19:01;;;;;;;17.00;6.63;;;;;;;;;;4974040;28;20023;-67
2021/07/13 19:21:27;;;;;;;21.55;8.10;;;;;;;;;;4974102;28;20022;-67
2021/07/13 19:23:55;;;;;;;16.02;6.95;;;;;;;;;;4974057;28;20105;-67
2021/07/13 19:26:22;;;;;;;11.48;7.05;;;;;;;;;;4973693;28;20139;-67
2021/07/13 19:28:47;;;;;;;13.77;7.22;;;;;;;;;;4973482;28;20109;-67
2021/07/13 19:31:13;;;;;;;17.70;7.43;;;;;;;;;;4973894;28;20564;-67
2021/07/13 19:33:47;;;;;;;12.70;7.82;;;;;;;;;;4973873;28;20026;-67
2021/07/13 19:38:58;;;;;;;14.38;7.22;;;;;;;;;;4974124;28;20029;-66
2021/07/13 19:41:23;;;;;;;17.23;7.93;;;;;;;;;;4974451;28;20030;-67
2021/07/13 19:43:49;;;;;;;22.02;8.27;;;;;;;;;;4973938;28;20073;-67
2021/07/13 19:46:15;;;;;;;17.50;8.35;;;;;;;;;;4988698;28;20056;-67
2021/07/13 19:48:40;;;;;;;13.40;7.75;;;;;;;;;;4973932;28;20390;-67
2021/07/13 19:51:06;;;;;;;13.73;8.23;;;;;;;;;;4973666;28;20114;-67
2021/07/13 19:53:32;;;;;;;11.45;6.85;;;;;;;;;;4973838;28;20031;-66
2021/07/13 19:55:58;;;;;;;10.75;7.43;;;;;;;;;;4973941;28;20030;-67
2021/07/13 19:58:25;;;;;;;17.58;7.43;;;;;;;;;;4973764;28;20023;-67
2021/07/13 20:00:52;;;;;;;12.70;7.25;;;;;;;;;;4973856;28;20042;-67
2021/07/13 20:03:18;;;;;;;19.02;7.88;;;;;;;;;;4973636;28;20030;-67
2021/07/13 20:05:44;;;;;;;11.48;7.95;;;;;;;;;;4973664;28;20014;-67